Time;durP1;ratioP1;P1;durP2;ratioP2;P2;SDS_P1;SDS_P2;PMS_P1;PMS_P2;Temp;Humidity;BMP_temperature;BMP_pressure;BME280_temperature;BME280_humidity;BME280_pressure;Samples;Min_cycle;Max_cycle;Signal;HPM_P1;HPM_P2
2022/08/19 00:00:36;;;;;;;4.18;2.70;;;;;;;;;;4437768;28;20067;-66
2022/08/19 00:02:47;;;;;;;3.17;2.80;;;;;;;;;;4423812;28;20650;-66
2022/08/19 00:04:57;;;;;;;3.40;3.00;;;;;;;;;;4437102;28;20343;-65
2022/08/19 00:07:08;;;;;;;3.85;3.00;;;;;;;;;;4437390;28;20030;-65
2022/08/19 00:09:19;;;;;;;3.63;2.90;;;;;;;;;;4437366;28;20043;-65
2022/08/19 00:11:30;;;;;;;3.10;2.80;;;;;;;;;;4423025;28;20032;-65
2022/08/19 00:13:41;;;;;;;3.40;2.83;;;;;;;;;;4437354;28;20433;-66
2022/08/19 00:15:51;;;;;;;3.70;2.80;;;;;;;;;;4438185;28;20046;-65
2022/08/19 00:18:02;;;;;;;2.90;2.60;;;;;;;;;;4438651;28;20032;-66
2022/08/19 00:20:17;;;;;;;3.47;2.80;;;;;;;;;;4437873;28;20039;-66
2022/08/19 00:22:28;;;;;;;3.10;2.70;;;;;;;;;;4436684;28;20110;-66
2022/08/19 00:24:38;;;;;;;3.60;2.90;;;;;;;;;;4436777;28;20087;-66
2022/08/19 00:26:50;;;;;;;3.40;2.80;;;;;;;;;;4439458;28;20055;-66
2022/08/19 00:29:00;;;;;;;3.10;2.80;;;;;;;;;;4437946;28;20090;-66
2022/08/19 00:31:11;;;;;;;3.35;2.95;;;;;;;;;;4432699;28;20805;-66
2022/08/19 00:33:21;;;;;;;3.42;2.63;;;;;;;;;;4438433;28;20091;-68
2022/08/19 00:35:33;;;;;;;3.38;2.70;;;;;;;;;;4436465;28;20519;-67
2022/08/19 00:37:44;;;;;;;3.20;2.70;;;;;;;;;;4436865;28;20107;-67
2022/08/19 00:39:55;;;;;;;3.88;3.00;;;;;;;;;;4436808;28;20120;-68
2022/08/19 00:42:06;;;;;;;3.30;2.83;;;;;;;;;;4451477;28;20126;-67
2022/08/19 00:44:22;;;;;;;4.20;2.90;;;;;;;;;;4437766;28;20531;-68
2022/08/19 00:46:36;;;;;;;4.00;3.10;;;;;;;;;;4436671;28;20766;-65
2022/08/19 00:48:46;;;;;;;3.10;2.80;;;;;;;;;;4436358;28;20043;-64
2022/08/19 00:50:57;;;;;;;3.75;3.10;;;;;;;;;;4437031;28;20048;-64
2022/08/19 00:53:10;;;;;;;3.47;3.00;;;;;;;;;;4437230;28;20106;-64
2022/08/19 00:55:25;;;;;;;3.83;2.90;;;;;;;;;;4427246;28;20034;-65
2022/08/19 00:57:39;;;;;;;2.85;2.50;;;;;;;;;;4428024;28;20044;-65
2022/08/19 00:59:52;;;;;;;3.00;2.70;;;;;;;;;;4439749;28;20112;-65
2022/08/19 01:02:03;;;;;;;4.30;2.97;;;;;;;;;;4437007;28;20853;-65
2022/08/19 01:04:13;;;;;;;3.35;3.03;;;;;;;;;;4438949;28;20040;-65
2022/08/19 01:06:25;;;;;;;3.15;2.72;;;;;;;;;;4429999;28;20039;-65
2022/08/19 01:08:36;;;;;;;3.42;2.90;;;;;;;;;;4436692;28;20586;-65
2022/08/19 01:10:53;;;;;;;4.05;3.20;;;;;;;;;;4437409;28;20048;-66
2022/08/19 01:13:04;;;;;;;3.60;3.30;;;;;;;;;;4419777;28;20817;-65
2022/08/19 01:15:17;;;;;;;3.65;2.70;;;;;;;;;;4438069;28;20593;-65
2022/08/19 01:17:28;;;;;;;3.97;3.17;;;;;;;;;;4436810;28;20039;-65
2022/08/19 01:19:41;;;;;;;4.03;3.28;;;;;;;;;;4437062;28;20032;-65
2022/08/19 01:22:20;;;;;;;4.40;3.35;;;;;;;;;;4451072;28;20039;-65
2022/08/19 01:24:30;;;;;;;3.42;3.10;;;;;;;;;;4435724;28;20610;-65
2022/08/19 01:26:44;;;;;;;3.88;3.20;;;;;;;;;;4438116;28;20054;-65
2022/08/19 01:28:57;;;;;;;3.50;3.20;;;;;;;;;;4428295;28;20134;-65
2022/08/19 01:31:11;;;;;;;4.25;3.15;;;;;;;;;;4440040;28;20039;-65
2022/08/19 01:33:21;;;;;;;3.90;3.33;;;;;;;;;;4437096;28;20035;-65
2022/08/19 01:35:36;;;;;;;4.10;3.15;;;;;;;;;;4452291;28;20027;-66
2022/08/19 01:37:59;;;;;;;3.78;3.17;;;;;;;;;;4436079;28;20043;-65
2022/08/19 01:40:10;;;;;;;3.50;2.90;;;;;;;;;;4452702;28;20040;-65
2022/08/19 01:42:21;;;;;;;3.85;3.30;;;;;;;;;;4436558;28;20497;-65
2022/08/19 01:44:32;;;;;;;3.70;2.97;;;;;;;;;;4436821;28;20058;-65
2022/08/19 01:46:43;;;;;;;3.88;3.10;;;;;;;;;;4437992;28;20030;-65
2022/08/19 01:48:53;;;;;;;3.70;3.28;;;;;;;;;;4435508;28;20626;-65
2022/08/19 01:51:05;;;;;;;3.63;3.08;;;;;;;;;;4429576;28;20048;-65
2022/08/19 01:53:16;;;;;;;3.65;3.00;;;;;;;;;;4423509;28;20032;-65
2022/08/19 01:55:26;;;;;;;3.38;3.03;;;;;;;;;;4435512;28;20035;-65
2022/08/19 01:57:37;;;;;;;3.67;3.08;;;;;;;;;;4437050;28;20045;-65
2022/08/19 01:59:48;;;;;;;4.20;3.60;;;;;;;;;;4432294;28;20020;-65
2022/08/19 02:01:58;;;;;;;3.80;3.03;;;;;;;;;;4439412;28;20063;-66
2022/08/19 02:04:09;;;;;;;3.92;3.53;;;;;;;;;;4423792;28;20709;-66
2022/08/19 02:06:19;;;;;;;5.03;3.47;;;;;;;;;;4438176;28;20028;-65
2022/08/19 02:08:31;;;;;;;5.38;3.35;;;;;;;;;;4439736;28;20589;-66
2022/08/19 02:10:42;;;;;;;5.38;3.47;;;;;;;;;;4439937;28;20179;-65
2022/08/19 02:12:53;;;;;;;4.53;3.63;;;;;;;;;;4439471;28;20063;-65
2022/08/19 02:15:04;;;;;;;3.53;3.20;;;;;;;;;;4422356;28;20123;-65
2022/08/19 02:17:14;;;;;;;4.55;3.58;;;;;;;;;;4432666;28;20542;-65
2022/08/19 02:19:25;;;;;;;3.80;3.30;;;;;;;;;;4441054;28;20043;-65
2022/08/19 02:21:35;;;;;;;4.72;3.58;;;;;;;;;;4426590;28;20032;-66
2022/08/19 02:23:46;;;;;;;3.95;3.22;;;;;;;;;;4439699;28;20051;-66
2022/08/19 02:25:56;;;;;;;4.68;3.60;;;;;;;;;;4454584;28;20039;-66
2022/08/19 02:28:07;;;;;;;4.68;3.55;;;;;;;;;;4438375;28;20135;-66
2022/08/19 02:30:18;;;;;;;3.90;3.47;;;;;;;;;;4438811;28;20486;-66
2022/08/19 02:32:30;;;;;;;4.53;3.40;;;;;;;;;;4448178;28;20044;-66
2022/08/19 02:34:41;;;;;;;3.70;3.30;;;;;;;;;;4439660;28;20564;-66
2022/08/19 02:36:51;;;;;;;3.75;3.20;;;;;;;;;;4439233;28;20299;-66
2022/08/19 02:39:02;;;;;;;3.58;3.03;;;;;;;;;;4440740;28;20036;-66
2022/08/19 02:41:19;;;;;;;5.32;3.20;;;;;;;;;;4440489;28;20103;-66
2022/08/19 02:43:32;;;;;;;3.53;3.10;;;;;;;;;;4439468;28;20548;-66
2022/08/19 02:45:42;;;;;;;3.72;3.15;;;;;;;;;;4421918;28;20064;-66
2022/08/19 02:47:53;;;;;;;3.25;2.78;;;;;;;;;;4438677;28;20659;-66
2022/08/19 02:50:04;;;;;;;3.97;3.15;;;;;;;;;;4439110;28;20099;-66
2022/08/19 02:52:14;;;;;;;4.05;3.10;;;;;;;;;;4431932;28;20036;-66
2022/08/19 02:54:25;;;;;;;4.03;3.10;;;;;;;;;;4438957;28;20590;-66
2022/08/19 02:56:37;;;;;;;4.28;3.55;;;;;;;;;;4440007;28;20036;-66
2022/08/19 02:58:48;;;;;;;4.15;3.40;;;;;;;;;;4454967;28;20905;-66
2022/08/19 03:00:59;;;;;;;4.25;3.30;;;;;;;;;;4440174;28;20077;-66
2022/08/19 03:03:09;;;;;;;3.58;2.85;;;;;;;;;;4455570;28;20313;-66
2022/08/19 03:05:20;;;;;;;3.80;3.00;;;;;;;;;;4440350;28;20039;-66
2022/08/19 03:07:30;;;;;;;3.20;2.85;;;;;;;;;;4422471;28;20027;-66
2022/08/19 03:09:42;;;;;;;4.28;3.30;;;;;;;;;;4439559;28;20759;-66
2022/08/19 03:11:52;;;;;;;3.15;2.85;;;;;;;;;;4423543;28;20653;-66
2022/08/19 03:14:05;;;;;;;3.50;3.20;;;;;;;;;;4440919;28;20078;-66
2022/08/19 03:16:18;;;;;;;4.18;3.45;;;;;;;;;;4438271;28;20883;-66
2022/08/19 03:18:28;;;;;;;3.83;3.15;;;;;;;;;;4454949;28;20110;-66
2022/08/19 03:20:49;;;;;;;4.15;3.35;;;;;;;;;;4438710;28;20054;-66
2022/08/19 03:23:00;;;;;;;3.90;3.50;;;;;;;;;;4439910;28;20035;-66
2022/08/19 03:25:11;;;;;;;4.43;3.75;;;;;;;;;;4428410;28;20034;-66
2022/08/19 03:27:22;;;;;;;4.88;3.83;;;;;;;;;;4438852;28;20122;-66
2022/08/19 03:29:33;;;;;;;4.82;3.83;;;;;;;;;;4440212;28;20054;-66
2022/08/19 03:31:44;;;;;;;4.18;3.45;;;;;;;;;;4440464;28;20035;-66
2022/08/19 03:33:54;;;;;;;5.03;3.47;;;;;;;;;;4426834;28;20028;-66
2022/08/19 03:36:14;;;;;;;4.18;3.67;;;;;;;;;;4455015;28;20038;-66
2022/08/19 03:38:24;;;;;;;4.82;4.07;;;;;;;;;;4438061;28;20526;-66
2022/08/19 03:40:36;;;;;;;5.25;4.38;;;;;;;;;;4441112;28;20092;-66
2022/08/19 03:42:47;;;;;;;5.70;4.40;;;;;;;;;;4438723;28;20130;-66
2022/08/19 03:44:58;;;;;;;5.97;4.97;;;;;;;;;;4439052;28;20476;-66
2022/08/19 03:47:08;;;;;;;5.40;4.57;;;;;;;;;;4437999;28;20038;-66
2022/08/19 03:49:19;;;;;;;5.95;4.68;;;;;;;;;;4437651;28;20484;-64
2022/08/19 03:51:32;;;;;;;5.50;4.68;;;;;;;;;;4452930;28;20796;-65
2022/08/19 03:53:43;;;;;;;5.78;4.70;;;;;;;;;;4439650;28;20154;-66
2022/08/19 03:55:55;;;;;;;5.80;4.47;;;;;;;;;;4453345;28;20573;-66
2022/08/19 03:58:06;;;;;;;5.00;4.47;;;;;;;;;;4438550;28;20043;-66
2022/08/19 04:00:17;;;;;;;5.05;4.35;;;;;;;;;;4439326;28;20807;-66
2022/08/19 04:02:27;;;;;;;5.43;4.50;;;;;;;;;;4438738;28;20050;-66
2022/08/19 04:04:39;;;;;;;5.80;4.70;;;;;;;;;;4438583;28;20027;-66
2022/08/19 04:06:51;;;;;;;5.80;4.63;;;;;;;;;;4425772;28;20040;-66
2022/08/19 04:09:04;;;;;;;5.53;4.50;;;;;;;;;;4421992;28;20123;-66
2022/08/19 04:11:18;;;;;;;5.97;5.07;;;;;;;;;;4439709;28;20028;-66
2022/08/19 04:13:28;;;;;;;6.68;4.70;;;;;;;;;;4436968;28;20040;-66
2022/08/19 04:15:43;;;;;;;6.30;4.80;;;;;;;;;;4438498;28;20311;-66
2022/08/19 04:17:54;;;;;;;5.80;4.95;;;;;;;;;;4439400;28;20039;-66
2022/08/19 04:20:05;;;;;;;5.97;5.15;;;;;;;;;;4438656;28;20084;-66
2022/08/19 04:22:15;;;;;;;6.30;4.72;;;;;;;;;;4436874;28;20114;-66
2022/08/19 04:24:26;;;;;;;5.80;4.70;;;;;;;;;;4437717;28;20583;-66
2022/08/19 04:26:38;;;;;;;5.20;4.60;;;;;;;;;;4437071;28;20505;-65
2022/08/19 04:28:50;;;;;;;5.72;5.00;;;;;;;;;;4439173;28;20036;-66
2022/08/19 04:31:00;;;;;;;5.20;4.55;;;;;;;;;;4451697;28;20047;-66
2022/08/19 04:33:12;;;;;;;6.40;4.38;;;;;;;;;;4437228;28;20044;-66
2022/08/19 04:35:22;;;;;;;5.45;4.60;;;;;;;;;;4453021;28;20094;-66
2022/08/19 04:37:34;;;;;;;5.63;5.00;;;;;;;;;;4438054;28;20548;-66
2022/08/19 04:44:43;;;;;;;5.45;4.32;;;;;;;;;;4437112;28;20039;-66
2022/08/19 04:46:54;;;;;;;5.30;4.40;;;;;;;;;;4437729;28;20039;-66
2022/08/19 04:49:05;;;;;;;6.15;4.63;;;;;;;;;;4438135;28;20044;-66
2022/08/19 04:51:16;;;;;;;5.80;4.72;;;;;;;;;;4414703;28;20037;-66
2022/08/19 04:53:32;;;;;;;6.82;5.10;;;;;;;;;;4429177;28;20047;-65
2022/08/19 04:55:42;;;;;;;5.85;4.88;;;;;;;;;;4429794;28;20036;-66
2022/08/19 04:57:53;;;;;;;5.43;4.45;;;;;;;;;;4438353;28;20382;-66
2022/08/19 05:00:05;;;;;;;6.63;5.30;;;;;;;;;;4437012;28;20931;-66
2022/08/19 05:02:15;;;;;;;5.38;4.70;;;;;;;;;;4437505;28;20038;-66
2022/08/19 05:04:26;;;;;;;6.00;4.80;;;;;;;;;;4437356;28;20488;-66
2022/08/19 05:06:36;;;;;;;5.53;4.88;;;;;;;;;;4436934;28;20041;-66
2022/08/19 05:08:48;;;;;;;6.20;5.00;;;;;;;;;;4424516;28;20039;-66
2022/08/19 05:10:58;;;;;;;6.35;5.28;;;;;;;;;;4436244;28;20606;-66
2022/08/19 05:13:10;;;;;;;6.45;5.38;;;;;;;;;;4437310;28;20102;-66
2022/08/19 05:15:21;;;;;;;6.35;5.05;;;;;;;;;;4437234;28;20036;-66
2022/08/19 05:17:32;;;;;;;7.22;5.60;;;;;;;;;;4436770;28;20420;-65
2022/08/19 05:24:40;;;;;;;7.10;5.88;;;;;;;;;;4437138;28;20074;-66
2022/08/19 05:26:52;;;;;;;7.65;6.63;;;;;;;;;;4438997;28;20051;-66
2022/08/19 05:29:03;;;;;;;8.38;6.95;;;;;;;;;;4436249;28;21084;-66
2022/08/19 05:31:13;;;;;;;8.63;6.70;;;;;;;;;;4452127;28;20052;-66
2022/08/19 05:33:24;;;;;;;6.65;5.40;;;;;;;;;;4438424;28;20043;-66
2022/08/19 05:35:37;;;;;;;6.28;5.50;;;;;;;;;;4438750;28;20101;-66
2022/08/19 05:37:47;;;;;;;5.68;5.07;;;;;;;;;;4437926;28;20043;-66
2022/08/19 05:39:58;;;;;;;6.85;5.75;;;;;;;;;;4439482;28;20091;-65
2022/08/19 05:42:10;;;;;;;7.57;5.90;;;;;;;;;;4440594;28;20035;-66
2022/08/19 05:44:21;;;;;;;8.02;6.20;;;;;;;;;;4442226;28;20809;-66
2022/08/19 05:46:32;;;;;;;7.90;6.18;;;;;;;;;;4439247;28;20077;-66
2022/08/19 05:48:42;;;;;;;7.50;6.40;;;;;;;;;;4455363;28;20122;-66
2022/08/19 05:50:53;;;;;;;8.38;5.97;;;;;;;;;;4439999;28;20531;-66
2022/08/19 05:53:04;;;;;;;7.03;6.18;;;;;;;;;;4428356;28;20574;-66
2022/08/19 05:55:15;;;;;;;7.50;5.75;;;;;;;;;;4428599;28;20212;-65
2022/08/19 05:57:26;;;;;;;7.13;6.00;;;;;;;;;;4441264;28;20035;-65
2022/08/19 05:59:36;;;;;;;8.00;6.30;;;;;;;;;;4439618;28;20040;-65
2022/08/19 06:01:50;;;;;;;7.47;6.45;;;;;;;;;;4439391;28;20066;-66
2022/08/19 06:04:01;;;;;;;9.05;7.22;;;;;;;;;;4440248;28;20044;-66
2022/08/19 06:06:13;;;;;;;8.80;6.10;;;;;;;;;;4441317;28;20031;-66
2022/08/19 06:08:24;;;;;;;6.68;5.80;;;;;;;;;;4439126;28;20051;-66
2022/08/19 06:10:35;;;;;;;6.25;5.47;;;;;;;;;;4440370;28;20358;-65
2022/08/19 06:12:46;;;;;;;7.50;6.55;;;;;;;;;;4439351;28;20946;-66
2022/08/19 06:14:56;;;;;;;8.80;6.80;;;;;;;;;;4439082;28;20920;-66
2022/08/19 06:17:07;;;;;;;8.63;6.47;;;;;;;;;;4439782;28;20087;-66
2022/08/19 06:19:18;;;;;;;8.23;6.30;;;;;;;;;;4453715;28;20045;-66
2022/08/19 06:21:30;;;;;;;7.55;6.53;;;;;;;;;;4439905;28;20039;-66
2022/08/19 06:23:40;;;;;;;9.13;6.50;;;;;;;;;;4437377;28;20795;-66
2022/08/19 06:25:51;;;;;;;6.75;5.60;;;;;;;;;;4439725;28;20043;-66
2022/08/19 06:28:02;;;;;;;6.53;5.40;;;;;;;;;;4427232;28;20268;-66
2022/08/19 06:30:13;;;;;;;8.30;6.97;;;;;;;;;;4439171;28;20126;-66
2022/08/19 06:32:23;;;;;;;7.43;6.07;;;;;;;;;;4438605;28;20044;-66
2022/08/19 06:34:35;;;;;;;7.40;5.95;;;;;;;;;;4439366;28;20032;-66
2022/08/19 06:36:48;;;;;;;7.90;5.95;;;;;;;;;;4438853;28;20609;-66
2022/08/19 06:39:08;;;;;;;6.82;5.20;;;;;;;;;;4455099;28;20030;-66
2022/08/19 06:41:19;;;;;;;7.43;5.78;;;;;;;;;;4439689;28;20848;-66
2022/08/19 06:43:30;;;;;;;8.70;6.63;;;;;;;;;;4440914;28;20127;-66
2022/08/19 06:45:40;;;;;;;6.97;5.20;;;;;;;;;;4438685;28;20453;-66
2022/08/19 06:47:55;;;;;;;8.15;6.30;;;;;;;;;;4438493;28;20039;-68
2022/08/19 06:50:06;;;;;;;6.20;4.90;;;;;;;;;;4453099;28;21101;-67
2022/08/19 06:52:17;;;;;;;8.40;6.00;;;;;;;;;;4439696;28;20063;-66
2022/08/19 06:54:29;;;;;;;7.03;5.15;;;;;;;;;;4439601;28;20588;-66
2022/08/19 06:56:40;;;;;;;6.70;4.97;;;;;;;;;;4439053;28;20039;-66
2022/08/19 06:58:52;;;;;;;8.18;5.88;;;;;;;;;;4439113;28;20035;-66
2022/08/19 07:01:03;;;;;;;8.70;6.13;;;;;;;;;;4439512;28;20584;-66
2022/08/19 07:03:14;;;;;;;7.93;6.20;;;;;;;;;;4427172;28;20725;-66
2022/08/19 07:05:25;;;;;;;10.05;6.93;;;;;;;;;;4436080;28;20035;-65
2022/08/19 07:07:35;;;;;;;8.57;6.10;;;;;;;;;;4409732;28;20040;-65
2022/08/19 07:09:46;;;;;;;7.82;5.85;;;;;;;;;;4438110;28;20036;-65
2022/08/19 07:11:56;;;;;;;8.35;6.45;;;;;;;;;;4431862;28;20087;-66
2022/08/19 07:14:07;;;;;;;7.05;5.70;;;;;;;;;;4438809;28;20043;-65
2022/08/19 07:16:19;;;;;;;7.60;5.80;;;;;;;;;;4439383;28;20050;-65
2022/08/19 07:18:29;;;;;;;7.63;5.95;;;;;;;;;;4438556;28;20042;-65
2022/08/19 07:20:41;;;;;;;8.48;6.47;;;;;;;;;;4438602;28;20407;-65
2022/08/19 07:22:51;;;;;;;8.52;6.65;;;;;;;;;;4439118;28;20706;-65
2022/08/19 07:25:03;;;;;;;6.82;5.43;;;;;;;;;;4439725;28;20110;-65
2022/08/19 07:27:14;;;;;;;6.63;5.13;;;;;;;;;;4425928;28;20790;-65
2022/08/19 07:29:24;;;;;;;7.35;5.95;;;;;;;;;;4439442;28;20078;-65
2022/08/19 07:31:36;;;;;;;8.75;6.50;;;;;;;;;;4439433;28;20215;-66
2022/08/19 07:33:48;;;;;;;8.15;6.60;;;;;;;;;;4453287;28;20043;-66
2022/08/19 07:35:59;;;;;;;8.63;6.57;;;;;;;;;;4438783;28;20039;-66
2022/08/19 07:38:10;;;;;;;8.85;6.30;;;;;;;;;;4439010;28;20095;-66
2022/08/19 07:40:20;;;;;;;8.75;5.95;;;;;;;;;;4423043;28;20032;-66
2022/08/19 07:42:31;;;;;;;8.68;6.25;;;;;;;;;;4439024;28;20075;-66
2022/08/19 07:44:42;;;;;;;8.35;5.90;;;;;;;;;;4453506;28;20053;-66
2022/08/19 07:46:55;;;;;;;6.85;5.70;;;;;;;;;;4440240;28;20039;-66
2022/08/19 07:49:07;;;;;;;7.28;6.03;;;;;;;;;;4437006;28;20032;-65
2022/08/19 07:51:20;;;;;;;7.05;5.85;;;;;;;;;;4431257;28;20043;-66
2022/08/19 07:53:32;;;;;;;7.18;5.25;;;;;;;;;;4455233;28;20043;-66
2022/08/19 07:55:42;;;;;;;6.55;5.38;;;;;;;;;;4438483;28;20068;-66
2022/08/19 07:57:53;;;;;;;7.82;5.65;;;;;;;;;;4437238;28;20034;-66
2022/08/19 08:00:05;;;;;;;7.93;5.22;;;;;;;;;;4438792;28;20122;-66
2022/08/19 08:02:22;;;;;;;6.63;4.47;;;;;;;;;;4430264;28;20043;-66
2022/08/19 08:09:36;;;;;;;6.47;4.82;;;;;;;;;;4437790;28;20130;-65
2022/08/19 08:11:53;;;;;;;7.00;5.18;;;;;;;;;;4426552;28;20590;-65
2022/08/19 08:14:04;;;;;;;7.07;5.20;;;;;;;;;;4436978;28;20071;-64
2022/08/19 08:16:15;;;;;;;7.15;5.28;;;;;;;;;;4439002;28;21286;-65
2022/08/19 08:18:25;;;;;;;6.65;5.03;;;;;;;;;;4428589;28;20044;-64
2022/08/19 08:20:36;;;;;;;6.80;5.15;;;;;;;;;;4437407;28;20036;-65
2022/08/19 08:25:20;;;;;;;5.80;4.50;;;;;;;;;;4451250;28;21446;-64
2022/08/19 08:27:30;;;;;;;6.20;4.85;;;;;;;;;;4438152;28;20044;-65
2022/08/19 08:29:41;;;;;;;6.65;5.05;;;;;;;;;;4438449;28;20047;-65
2022/08/19 08:31:51;;;;;;;6.25;4.80;;;;;;;;;;4438433;28;20075;-65
2022/08/19 08:34:02;;;;;;;6.55;4.47;;;;;;;;;;4438125;28;20063;-65
2022/08/19 08:36:13;;;;;;;6.70;4.43;;;;;;;;;;4438540;28;20119;-65
2022/08/19 08:38:24;;;;;;;4.57;3.80;;;;;;;;;;4422593;28;20040;-65
2022/08/19 08:40:34;;;;;;;4.32;3.45;;;;;;;;;;4438503;28;20555;-66
2022/08/19 08:42:54;;;;;;;5.25;3.78;;;;;;;;;;4438933;28;20090;-65
2022/08/19 08:45:14;;;;;;;5.50;3.83;;;;;;;;;;4439158;28;20035;-65
2022/08/19 08:47:29;;;;;;;5.05;3.88;;;;;;;;;;4426818;28;20619;-65
2022/08/19 08:49:39;;;;;;;5.55;4.13;;;;;;;;;;4423077;28;20055;-65
2022/08/19 08:52:11;;;;;;;5.00;3.95;;;;;;;;;;4425463;28;20620;-65
2022/08/19 08:54:24;;;;;;;4.63;3.63;;;;;;;;;;4436637;28;20040;-65
2022/08/19 08:56:34;;;;;;;4.45;3.78;;;;;;;;;;4425354;28;20084;-65
2022/08/19 08:59:03;;;;;;;4.93;3.35;;;;;;;;;;4438187;28;20180;-65
2022/08/19 09:01:15;;;;;;;4.53;3.40;;;;;;;;;;4428876;28;20074;-65
2022/08/19 09:03:27;;;;;;;4.28;3.28;;;;;;;;;;4414452;28;20040;-65
2022/08/19 09:05:56;;;;;;;4.10;3.10;;;;;;;;;;4436583;28;20043;-65
2022/08/19 09:08:18;;;;;;;4.32;3.42;;;;;;;;;;4442542;28;20814;-65
2022/08/19 09:10:38;;;;;;;3.97;2.95;;;;;;;;;;4439574;28;20052;-65
2022/08/19 09:12:58;;;;;;;3.50;2.90;;;;;;;;;;4428588;28;20811;-65
2022/08/19 09:15:11;;;;;;;4.28;3.10;;;;;;;;;;4439241;28;20090;-65
2022/08/19 09:17:30;;;;;;;4.32;3.50;;;;;;;;;;4418179;28;20043;-65
2022/08/19 09:20:16;;;;;;;4.10;3.20;;;;;;;;;;4431932;28;20035;-65
2022/08/19 09:22:26;;;;;;;3.90;2.88;;;;;;;;;;4409092;28;20360;-65
2022/08/19 09:24:38;;;;;;;5.18;3.80;;;;;;;;;;4438991;28;20091;-65
2022/08/19 09:26:48;;;;;;;3.70;3.33;;;;;;;;;;4455697;28;20038;-65
2022/08/19 09:28:59;;;;;;;4.20;3.08;;;;;;;;;;4440201;28;20821;-65
2022/08/19 09:31:11;;;;;;;3.63;3.10;;;;;;;;;;4440572;28;20044;-65
2022/08/19 09:33:22;;;;;;;3.70;3.10;;;;;;;;;;4440479;28;20039;-65
2022/08/19 09:35:33;;;;;;;4.40;2.88;;;;;;;;;;4439802;28;20031;-65
2022/08/19 09:37:44;;;;;;;4.03;3.00;;;;;;;;;;4427226;28;20112;-65
2022/08/19 09:39:55;;;;;;;3.47;3.00;;;;;;;;;;4438465;28;20038;-62
2022/08/19 09:42:09;;;;;;;3.22;2.72;;;;;;;;;;4423677;28;20040;-65
2022/08/19 09:44:20;;;;;;;3.10;2.78;;;;;;;;;;4440887;28;20047;-65
2022/08/19 09:46:30;;;;;;;3.65;2.92;;;;;;;;;;4440523;28;20056;-65
2022/08/19 09:48:42;;;;;;;3.40;3.00;;;;;;;;;;4439143;28;20031;-65
2022/08/19 09:50:52;;;;;;;3.60;3.05;;;;;;;;;;4431424;28;20591;-64
2022/08/19 09:53:03;;;;;;;3.83;3.08;;;;;;;;;;4440461;28;20043;-66
2022/08/19 09:55:13;;;;;;;3.58;3.28;;;;;;;;;;4440495;28;20062;-66
2022/08/19 09:57:24;;;;;;;3.50;3.20;;;;;;;;;;4427274;28;20032;-66
2022/08/19 09:59:34;;;;;;;4.40;3.50;;;;;;;;;;4439776;28;20523;-67
2022/08/19 10:01:45;;;;;;;4.10;3.03;;;;;;;;;;4439526;28;20039;-66
2022/08/19 10:03:57;;;;;;;3.30;2.97;;;;;;;;;;4438917;28;20151;-66
2022/08/19 10:06:08;;;;;;;3.45;2.85;;;;;;;;;;4441299;28;20122;-66
2022/08/19 10:08:23;;;;;;;2.97;2.53;;;;;;;;;;4440137;28;20043;-66
2022/08/19 10:10:35;;;;;;;3.30;2.90;;;;;;;;;;4440085;28;20078;-66
2022/08/19 10:12:47;;;;;;;4.07;2.90;;;;;;;;;;4454377;28;20134;-66
2022/08/19 10:14:57;;;;;;;3.97;2.75;;;;;;;;;;4440110;28;20050;-66
2022/08/19 10:17:08;;;;;;;3.90;2.97;;;;;;;;;;4440613;28;20036;-66
2022/08/19 10:19:22;;;;;;;4.43;2.95;;;;;;;;;;4440700;28;20099;-66
2022/08/19 10:21:34;;;;;;;3.20;2.90;;;;;;;;;;4440085;28;20038;-66
2022/08/19 10:23:49;;;;;;;3.60;3.30;;;;;;;;;;4454670;28;20964;-64
2022/08/19 10:26:00;;;;;;;4.03;2.38;;;;;;;;;;4438941;28;20040;-67
2022/08/19 10:28:14;;;;;;;2.90;2.38;;;;;;;;;;4438896;28;20023;-67
2022/08/19 10:30:24;;;;;;;3.70;3.40;;;;;;;;;;4430129;28;20175;-68
2022/08/19 10:32:35;;;;;;;3.60;3.30;;;;;;;;;;4439573;28;20125;-67
2022/08/19 10:34:46;;;;;;;1.92;1.70;;;;;;;;;;4439157;28;20043;-67
2022/08/19 10:36:57;;;;;;;3.70;3.40;;;;;;;;;;4440492;28;20111;-67
2022/08/19 10:39:09;;;;;;;3.83;3.30;;;;;;;;;;4438952;28;20031;-68
2022/08/19 10:41:22;;;;;;;3.72;3.40;;;;;;;;;;4439635;28;20047;-68
2022/08/19 10:43:36;;;;;;;3.53;3.22;;;;;;;;;;4440080;28;20796;-67
2022/08/19 10:45:58;;;;;;;3.55;3.25;;;;;;;;;;4438326;28;20114;-68
2022/08/19 10:48:08;;;;;;;3.28;2.97;;;;;;;;;;4438969;28;20043;-68
2022/08/19 10:52:49;;;;;;;3.95;3.30;;;;;;;;;;4439090;28;20027;-67
2022/08/19 10:57:31;;;;;;;4.43;3.70;;;;;;;;;;4440823;28;20619;-67
2022/08/19 10:59:41;;;;;;;4.72;4.32;;;;;;;;;;4439896;28;20583;-67
2022/08/19 11:01:52;;;;;;;4.30;3.90;;;;;;;;;;4440852;28;20524;-67
2022/08/19 11:04:04;;;;;;;4.60;4.20;;;;;;;;;;4441288;28;20070;-67
2022/08/19 11:06:14;;;;;;;4.68;4.25;;;;;;;;;;4439560;28;20035;-67
2022/08/19 11:08:26;;;;;;;4.15;3.85;;;;;;;;;;4439924;28;20027;-67
2022/08/19 11:10:37;;;;;;;4.28;3.88;;;;;;;;;;4439817;28;20043;-68
2022/08/19 11:12:47;;;;;;;4.30;3.90;;;;;;;;;;4422312;28;20032;-68
2022/08/19 11:14:58;;;;;;;4.25;3.70;;;;;;;;;;4409651;28;20040;-69
2022/08/19 11:17:10;;;;;;;4.70;4.28;;;;;;;;;;4439611;28;20518;-67
2022/08/19 11:19:23;;;;;;;4.28;3.88;;;;;;;;;;4439330;28;20595;-67
2022/08/19 11:21:39;;;;;;;4.10;3.70;;;;;;;;;;4433166;28;20040;-67
2022/08/19 11:23:52;;;;;;;3.78;3.38;;;;;;;;;;4440021;28;20075;-67
2022/08/19 11:26:03;;;;;;;4.00;3.60;;;;;;;;;;4443972;28;20098;-67
2022/08/19 11:28:13;;;;;;;4.00;3.60;;;;;;;;;;4448437;28;20066;-67
2022/08/19 11:30:24;;;;;;;4.10;3.72;;;;;;;;;;4437890;28;20058;-67
2022/08/19 11:32:34;;;;;;;4.22;3.83;;;;;;;;;;4439800;28;20030;-67
2022/08/19 11:34:44;;;;;;;4.28;3.88;;;;;;;;;;4441601;28;20415;-67
2022/08/19 11:36:59;;;;;;;4.25;3.85;;;;;;;;;;4458242;28;20038;-67
2022/08/19 11:39:11;;;;;;;3.60;3.30;;;;;;;;;;4424002;28;20217;-67
2022/08/19 11:41:23;;;;;;;3.38;3.08;;;;;;;;;;4426984;28;20036;-67
2022/08/19 11:43:34;;;;;;;4.57;3.67;;;;;;;;;;4439906;28;20032;-67
2022/08/19 11:45:48;;;;;;;4.10;3.70;;;;;;;;;;4455055;28;20024;-67
2022/08/19 11:47:58;;;;;;;3.85;3.55;;;;;;;;;;4440067;28;20168;-67
2022/08/19 11:50:09;;;;;;;4.25;3.85;;;;;;;;;;4440087;28;20122;-67
2022/08/19 11:52:20;;;;;;;3.80;3.50;;;;;;;;;;4438908;28;20163;-67
2022/08/19 11:54:30;;;;;;;3.78;3.38;;;;;;;;;;4440748;28;20039;-67
2022/08/19 11:56:41;;;;;;;4.20;3.80;;;;;;;;;;4425625;28;20032;-67
2022/08/19 11:58:52;;;;;;;3.30;3.00;;;;;;;;;;4439303;28;20039;-67
2022/08/19 12:01:15;;;;;;;3.50;3.20;;;;;;;;;;4431701;28;20075;-67
2022/08/19 12:03:25;;;;;;;3.20;2.90;;;;;;;;;;4439175;28;20043;-66
2022/08/19 12:05:37;;;;;;;2.70;2.50;;;;;;;;;;4438438;28;20041;-67
2022/08/19 12:07:48;;;;;;;3.08;2.80;;;;;;;;;;4422292;28;20843;-67
2022/08/19 12:09:59;;;;;;;3.00;2.70;;;;;;;;;;4455161;28;20047;-67
2022/08/19 12:12:10;;;;;;;2.85;2.55;;;;;;;;;;4427148;28;20086;-68
2022/08/19 12:14:21;;;;;;;2.90;2.70;;;;;;;;;;4438127;28;20035;-69
2022/08/19 12:16:32;;;;;;;2.35;2.15;;;;;;;;;;4420989;28;20044;-70
2022/08/19 12:18:46;;;;;;;3.08;2.03;;;;;;;;;;4439752;28;20795;-68
2022/08/19 12:20:56;;;;;;;2.67;2.35;;;;;;;;;;4437483;28;20031;-68
2022/08/19 12:23:09;;;;;;;2.50;2.17;;;;;;;;;;4438343;28;20028;-68
2022/08/19 12:25:20;;;;;;;2.30;2.10;;;;;;;;;;4436944;28;20146;-69
2022/08/19 12:27:31;;;;;;;2.53;2.17;;;;;;;;;;4437654;28;20040;-69
2022/08/19 12:29:41;;;;;;;2.17;1.98;;;;;;;;;;4438872;28;20047;-67
2022/08/19 12:31:52;;;;;;;2.13;1.92;;;;;;;;;;4439457;28;20404;-68
2022/08/19 12:34:02;;;;;;;2.83;2.17;;;;;;;;;;4438127;28;20059;-67
2022/08/19 12:36:15;;;;;;;2.30;2.10;;;;;;;;;;4424831;28;20053;-67
2022/08/19 12:38:25;;;;;;;2.20;2.00;;;;;;;;;;4438180;28;20741;-67
2022/08/19 12:40:36;;;;;;;2.15;1.95;;;;;;;;;;4415151;28;20044;-67
2022/08/19 12:42:48;;;;;;;1.95;1.70;;;;;;;;;;4438675;28;20042;-67
2022/08/19 12:44:59;;;;;;;1.83;1.60;;;;;;;;;;4437210;28;20090;-67
2022/08/19 12:47:11;;;;;;;2.53;1.80;;;;;;;;;;4438642;28;20061;-67
2022/08/19 12:49:21;;;;;;;2.10;1.90;;;;;;;;;;4437500;28;20063;-66
2022/08/19 12:51:32;;;;;;;2.30;2.05;;;;;;;;;;4428752;28;20507;-67
2022/08/19 12:53:43;;;;;;;2.38;2.17;;;;;;;;;;4436168;28;20071;-67
2022/08/19 12:56:00;;;;;;;2.97;2.45;;;;;;;;;;4420884;28;20132;-67
2022/08/19 12:58:12;;;;;;;2.70;2.50;;;;;;;;;;4431083;28;20046;-67
2022/08/19 13:00:23;;;;;;;2.60;2.40;;;;;;;;;;4441892;28;20196;-67
2022/08/19 13:02:34;;;;;;;2.47;2.22;;;;;;;;;;4422173;28;20159;-68
2022/08/19 13:04:48;;;;;;;2.30;2.10;;;;;;;;;;4452700;28;20039;-68
2022/08/19 13:06:58;;;;;;;2.30;2.10;;;;;;;;;;4421788;28;20031;-67
2022/08/19 13:09:09;;;;;;;2.47;2.28;;;;;;;;;;4451964;28;20103;-67
2022/08/19 13:11:20;;;;;;;2.60;2.40;;;;;;;;;;4453239;28;20516;-67
2022/08/19 13:13:31;;;;;;;2.45;2.25;;;;;;;;;;4430945;28;20674;-67
2022/08/19 13:15:41;;;;;;;2.60;2.40;;;;;;;;;;4437163;28;20069;-67
2022/08/19 13:17:53;;;;;;;3.03;2.53;;;;;;;;;;4430522;28;20050;-67
2022/08/19 13:20:06;;;;;;;2.60;2.40;;;;;;;;;;4438804;28;20036;-67
2022/08/19 13:22:17;;;;;;;2.40;2.20;;;;;;;;;;4437262;28;20683;-67
2022/08/19 13:24:28;;;;;;;2.10;1.90;;;;;;;;;;4437433;28;20151;-67
2022/08/19 13:26:38;;;;;;;2.10;1.90;;;;;;;;;;4451623;28;20594;-67
2022/08/19 13:33:49;;;;;;;1.73;1.50;;;;;;;;;;4426500;28;20043;-67
2022/08/19 13:36:00;;;;;;;1.77;1.67;;;;;;;;;;4452893;28;20098;-68
2022/08/19 13:38:12;;;;;;;1.70;1.60;;;;;;;;;;4437241;28;20066;-68